createdAt,value
2023-05-20T00:01:56.903Z,13.17
2023-05-20T00:04:24.929Z,13.15
2023-05-20T00:06:53.154Z,13.13
2023-05-20T00:09:21.113Z,12.87
2023-05-20T00:11:49.015Z,12.50
2023-05-20T00:14:16.934Z,12.99
2023-05-20T00:16:46.261Z,12.92
2023-05-20T00:19:14.307Z,12.94
2023-05-20T00:21:42.213Z,12.87
2023-05-20T00:24:10.157Z,12.85
2023-05-20T00:26:38.086Z,12.65
2023-05-20T00:29:06.027Z,12.67
2023-05-20T00:31:33.983Z,12.79
2023-05-20T00:34:03.750Z,12.78
2023-05-20T00:36:31.735Z,12.85
2023-05-20T00:39:00.026Z,12.85
2023-05-20T00:41:28.397Z,12.70
2023-05-20T00:43:56.715Z,12.73
2023-05-20T00:46:25.253Z,12.67
2023-05-20T00:48:53.934Z,12.91
2023-05-20T00:51:23.447Z,12.88
2023-05-20T00:53:51.732Z,12.89
2023-05-20T00:56:20.064Z,12.72
2023-05-20T00:58:48.424Z,12.73
2023-05-20T01:01:16.349Z,12.96
2023-05-20T01:03:44.322Z,12.99
2023-05-20T01:06:12.432Z,12.64
2023-05-20T01:08:42.300Z,12.80
2023-05-20T01:11:16.760Z,12.15
2023-05-20T01:13:48.050Z,12.58
2023-05-20T01:16:17.937Z,12.32
2023-05-20T01:18:48.713Z,12.39
2023-05-20T01:21:18.814Z,12.40
2023-05-20T01:23:48.284Z,12.42
2023-05-20T01:26:17.260Z,12.37
2023-05-20T01:28:45.310Z,12.31
2023-05-20T01:31:20.268Z,12.06
2023-05-20T01:33:53.131Z,11.50
2023-05-20T01:36:23.170Z,12.12
2023-05-20T01:38:54.517Z,11.77
2023-05-20T01:41:25.411Z,11.88
2023-05-20T01:43:53.559Z,12.11
2023-05-20T01:46:21.582Z,12.12
2023-05-20T01:48:49.559Z,12.08
2023-05-20T01:51:17.951Z,12.05
2023-05-20T01:53:46.050Z,11.66
2023-05-20T01:56:15.364Z,11.93
2023-05-20T01:58:43.280Z,11.96
2023-05-20T02:01:11.271Z,11.96
2023-05-20T02:03:39.161Z,11.86
2023-05-20T02:06:07.148Z,11.90
2023-05-20T02:08:35.148Z,11.96
2023-05-20T02:11:03.231Z,11.87
2023-05-20T02:13:32.637Z,11.80
2023-05-20T02:16:00.687Z,11.69
2023-05-20T02:18:28.694Z,11.07
2023-05-20T02:20:56.692Z,11.33
2023-05-20T02:23:24.634Z,11.37
2023-05-20T02:25:52.566Z,11.41
2023-05-20T02:28:20.740Z,11.27
2023-05-20T02:30:51.230Z,11.25
2023-05-20T02:33:20.071Z,11.31
2023-05-20T02:35:48.113Z,11.31
2023-05-20T02:38:16.729Z,11.23
2023-05-20T02:40:45.819Z,11.16
2023-05-20T02:43:13.695Z,11.41
2023-05-20T02:45:42.359Z,11.46
2023-05-20T02:48:12.141Z,11.39
2023-05-20T02:50:40.809Z,11.53
2023-05-20T02:53:08.793Z,11.56
2023-05-20T02:55:36.960Z,11.60
2023-05-20T02:58:05.112Z,11.42
2023-05-20T03:00:35.717Z,11.59
2023-05-20T03:03:03.783Z,11.61
2023-05-20T03:05:33.514Z,11.63
2023-05-20T03:08:01.550Z,11.56
2023-05-20T03:10:35.776Z,11.56
2023-05-20T03:13:03.765Z,11.48
2023-05-20T03:15:32.098Z,11.47
2023-05-20T03:18:00.252Z,11.43
2023-05-20T03:20:29.141Z,11.37
2023-05-20T03:22:58.410Z,11.31
2023-05-20T03:25:27.042Z,10.90
2023-05-20T03:27:55.014Z,11.34
2023-05-20T03:30:23.766Z,11.43
2023-05-20T03:32:51.876Z,11.23
2023-05-20T03:35:20.488Z,11.35
2023-05-20T03:37:48.832Z,11.26
2023-05-20T03:40:18.308Z,11.25
2023-05-20T03:42:46.198Z,11.52
2023-05-20T03:45:14.107Z,11.62
2023-05-20T03:47:42.099Z,11.65
2023-05-20T03:50:10.780Z,11.43
2023-05-20T03:52:39.166Z,11.88
2023-05-20T03:55:08.194Z,11.96
2023-05-20T03:57:37.789Z,11.95
2023-05-20T04:00:10.794Z,12.10
2023-05-20T04:02:39.486Z,12.18
2023-05-20T04:05:10.452Z,12.34
2023-05-20T04:07:38.627Z,12.43
2023-05-20T04:10:07.520Z,12.46
2023-05-20T04:12:38.311Z,12.24
2023-05-20T04:15:09.307Z,12.39
2023-05-20T04:17:38.520Z,12.36
2023-05-20T04:20:08.358Z,12.59
2023-05-20T04:22:36.309Z,12.42
2023-05-20T04:25:05.440Z,12.78
2023-05-20T04:27:34.770Z,12.91
2023-05-20T04:30:04.240Z,12.97
2023-05-20T04:32:34.654Z,12.93
2023-05-20T04:35:03.157Z,13.23
2023-05-20T04:37:32.192Z,13.52
2023-05-20T04:40:00.260Z,13.72
2023-05-20T04:42:28.162Z,13.84
2023-05-20T04:44:56.077Z,13.86
2023-05-20T04:47:24.242Z,14.18
2023-05-20T04:49:53.862Z,13.96
2023-05-20T04:52:21.782Z,13.92
2023-05-20T04:54:51.292Z,14.02
2023-05-20T04:57:21.150Z,14.32
2023-05-20T04:59:49.361Z,14.75
2023-05-20T05:02:17.323Z,14.77
2023-05-20T05:04:45.432Z,14.97
2023-05-20T05:07:14.815Z,15.12
2023-05-20T05:09:42.887Z,15.44
2023-05-20T05:12:10.898Z,15.84
2023-05-20T05:14:38.789Z,16.11
2023-05-20T05:17:06.830Z,16.54
2023-05-20T05:19:34.720Z,16.43
2023-05-20T05:22:02.650Z,17.07
2023-05-20T05:24:32.055Z,17.37
2023-05-20T05:26:59.982Z,17.65
2023-05-20T05:29:27.914Z,17.98
2023-05-20T05:31:55.917Z,17.59
2023-05-20T05:34:23.988Z,18.25
2023-05-20T05:36:51.837Z,17.92
2023-05-20T05:39:20.130Z,18.65
2023-05-20T05:41:49.398Z,18.74
2023-05-20T05:44:17.395Z,19.07
2023-05-20T05:46:45.407Z,18.55
2023-05-20T05:49:13.404Z,18.93
2023-05-20T05:51:41.297Z,19.60
2023-05-20T05:54:09.307Z,19.96
2023-05-20T05:56:37.215Z,19.82
2023-05-20T05:59:06.939Z,19.60
2023-05-20T06:01:35.226Z,19.42
2023-05-20T06:04:03.284Z,19.08
2023-05-20T06:06:31.665Z,19.30
2023-05-20T06:08:59.896Z,19.58
2023-05-20T06:11:27.847Z,19.49
2023-05-20T06:13:55.771Z,19.51
2023-05-20T06:16:25.226Z,20.06
2023-05-20T06:18:53.368Z,20.22
2023-05-20T06:21:21.304Z,20.70
2023-05-20T06:23:49.293Z,20.83
2023-05-20T06:26:17.215Z,21.32
2023-05-20T06:28:45.139Z,21.31
2023-05-20T06:31:13.228Z,21.45
2023-05-20T06:33:42.678Z,21.85
2023-05-20T06:36:10.738Z,21.60
2023-05-20T06:38:38.795Z,21.58
2023-05-20T06:41:06.907Z,21.25
2023-05-20T06:43:35.099Z,21.43
2023-05-20T06:46:03.307Z,21.52
2023-05-20T06:48:31.769Z,21.47
2023-05-20T06:51:01.158Z,21.40
2023-05-20T06:53:29.171Z,21.07
2023-05-20T06:55:57.134Z,21.63
2023-05-20T06:58:25.189Z,22.22
2023-05-20T07:00:53.439Z,22.00
2023-05-20T07:03:21.416Z,22.38
2023-05-20T07:05:49.391Z,22.09
2023-05-20T07:08:18.770Z,22.44
2023-05-20T07:10:47.003Z,22.80
2023-05-20T07:13:14.968Z,23.40
2023-05-20T07:15:43.007Z,23.68
2023-05-20T07:18:11.691Z,23.97
2023-05-20T07:20:39.819Z,24.23
2023-05-20T07:23:07.806Z,24.81
2023-05-20T07:25:37.096Z,25.34
2023-05-20T07:28:05.298Z,24.82
2023-05-20T07:30:33.264Z,25.30
2023-05-20T07:33:01.357Z,25.32
2023-05-20T07:35:29.340Z,25.90
2023-05-20T07:37:57.278Z,25.64
2023-05-20T07:40:25.277Z,25.45
2023-05-20T07:42:54.567Z,25.07
2023-05-20T07:45:22.600Z,25.21
2023-05-20T07:47:50.492Z,24.70
2023-05-20T07:50:18.439Z,24.94
2023-05-20T07:52:56.009Z,25.23
2023-05-20T07:55:25.016Z,25.25
2023-05-20T07:57:54.385Z,25.43
2023-05-20T08:00:22.319Z,25.42
2023-05-20T08:02:50.661Z,25.03
2023-05-20T08:05:18.872Z,24.91
2023-05-20T08:07:46.921Z,24.96
2023-05-20T08:10:15.361Z,24.86
2023-05-20T08:12:43.714Z,23.69
2023-05-20T08:15:13.380Z,23.49
2023-05-20T08:17:41.466Z,23.51
2023-05-20T08:20:10.968Z,23.27
2023-05-20T08:22:38.894Z,23.40
2023-05-20T08:25:10.166Z,23.15
2023-05-20T08:27:38.826Z,22.83
2023-05-20T08:30:10.050Z,22.83
2023-05-20T08:32:39.646Z,23.15
2023-05-20T08:35:08.650Z,23.14
2023-05-20T08:37:36.658Z,23.20
2023-05-20T08:40:06.676Z,22.95
2023-05-20T08:42:34.938Z,22.84
2023-05-20T08:45:04.253Z,22.85
2023-05-20T08:47:32.300Z,22.68
2023-05-20T08:50:01.689Z,22.48
2023-05-20T08:52:30.737Z,22.55
2023-05-20T08:55:00.218Z,22.98
2023-05-20T08:57:28.683Z,22.89
2023-05-20T08:59:57.393Z,22.84
2023-05-20T09:02:25.389Z,22.58
2023-05-20T09:04:54.152Z,22.67
2023-05-20T09:07:29.827Z,22.52
2023-05-20T09:09:58.720Z,22.57
2023-05-20T09:12:26.631Z,22.46
2023-05-20T09:14:54.616Z,22.55
2023-05-20T09:17:23.200Z,22.47
2023-05-20T09:19:51.760Z,22.69
2023-05-20T09:22:24.923Z,22.75
2023-05-20T09:24:54.803Z,22.59
2023-05-20T09:27:24.168Z,22.55
2023-05-20T09:29:52.836Z,22.71
2023-05-20T09:32:24.285Z,22.88
2023-05-20T09:34:52.817Z,23.35
2023-05-20T09:37:23.371Z,23.37
2023-05-20T09:39:59.738Z,23.29
2023-05-20T09:42:29.676Z,22.93
2023-05-20T09:44:58.135Z,23.11
2023-05-20T09:47:26.761Z,23.12
2023-05-20T09:49:55.050Z,23.21
2023-05-20T09:52:23.648Z,23.44
2023-05-20T09:54:52.427Z,23.31
2023-05-20T09:57:21.968Z,23.20
2023-05-20T09:59:52.926Z,23.16
2023-05-20T10:02:21.667Z,23.17
2023-05-20T10:04:52.677Z,23.33
2023-05-20T10:07:50.855Z,23.30
2023-05-20T10:10:31.084Z,23.30
2023-05-20T10:13:16.587Z,23.26
2023-05-20T10:15:56.733Z,22.79
2023-05-20T10:18:38.043Z,22.82
2023-05-20T10:21:17.078Z,23.00
2023-05-20T10:23:45.438Z,23.17
2023-05-20T10:26:13.332Z,23.18
2023-05-20T10:28:43.004Z,22.89
2023-05-20T10:31:17.755Z,22.60
2023-05-20T10:33:48.007Z,22.96
2023-05-20T10:36:27.081Z,23.01
2023-05-20T10:38:56.170Z,22.56
2023-05-20T10:41:26.686Z,22.78
2023-05-20T10:44:06.752Z,22.69
2023-05-20T10:46:51.467Z,22.79
2023-05-20T10:49:27.247Z,23.05
2023-05-20T10:51:56.071Z,22.81
2023-05-20T10:54:24.342Z,23.09
2023-05-20T10:56:53.869Z,23.15
2023-05-20T10:59:23.607Z,23.19
2023-05-20T11:01:52.159Z,23.13
2023-05-20T11:04:20.785Z,22.94
2023-05-20T11:06:54.355Z,22.95
2023-05-20T11:09:22.803Z,22.95
2023-05-20T11:11:51.610Z,22.89
2023-05-20T11:14:20.324Z,22.80
2023-05-20T11:16:53.309Z,22.49
2023-05-20T11:19:22.798Z,23.04
2023-05-20T11:21:51.549Z,23.18
2023-05-20T11:24:26.649Z,22.96
2023-05-20T11:26:55.600Z,23.24
2023-05-20T11:29:23.669Z,23.14
2023-05-20T11:31:53.342Z,23.25
2023-05-20T11:34:25.576Z,23.32
2023-05-20T11:36:58.853Z,23.25
2023-05-20T11:39:28.154Z,23.33
2023-05-20T11:41:56.179Z,23.48
2023-05-20T11:44:24.261Z,23.10
2023-05-20T11:47:00.284Z,22.75
2023-05-20T11:49:28.279Z,23.03
2023-05-20T11:51:56.659Z,23.07
2023-05-20T11:54:25.522Z,22.91
2023-05-20T11:56:55.861Z,22.97
2023-05-20T11:59:26.063Z,23.20
2023-05-20T12:01:55.462Z,23.17
2023-05-20T12:04:23.583Z,22.92
2023-05-20T12:06:53.260Z,22.76
2023-05-20T12:09:21.209Z,22.92
2023-05-20T12:11:49.344Z,22.69
2023-05-20T12:14:17.402Z,22.12
2023-05-20T12:16:45.877Z,22.30
2023-05-20T12:19:15.323Z,22.33
2023-05-20T12:21:43.364Z,22.16
2023-05-20T12:24:11.378Z,21.66
2023-05-20T12:26:39.371Z,21.92
2023-05-20T12:29:07.479Z,21.39
2023-05-20T12:31:37.697Z,20.77
2023-05-20T12:34:06.438Z,20.64
2023-05-20T12:36:35.813Z,20.80
2023-05-20T12:39:04.667Z,20.74
2023-05-20T12:41:32.614Z,20.92
2023-05-20T12:44:00.627Z,21.08
2023-05-20T12:46:28.857Z,21.31
2023-05-20T12:48:57.112Z,20.59
2023-05-20T12:51:25.191Z,21.15
2023-05-20T12:53:54.839Z,21.43
2023-05-20T12:56:24.007Z,21.53
2023-05-20T12:58:52.039Z,21.63
2023-05-20T13:01:20.246Z,21.79
2023-05-20T13:03:48.411Z,22.05
2023-05-20T13:06:16.982Z,22.29
2023-05-20T13:08:45.535Z,22.50
2023-05-20T13:11:14.886Z,22.32
2023-05-20T13:13:43.144Z,22.67
2023-05-20T13:16:12.404Z,22.51
2023-05-20T13:18:40.510Z,22.18
2023-05-20T13:21:08.848Z,22.15
2023-05-20T13:23:37.341Z,21.12
2023-05-20T13:26:05.648Z,21.33
2023-05-20T13:28:35.082Z,21.58
2023-05-20T13:31:03.800Z,22.04
2023-05-20T13:33:32.452Z,22.06
2023-05-20T13:36:00.542Z,22.34
2023-05-20T13:38:28.685Z,22.35
2023-05-20T13:40:59.329Z,22.37
2023-05-20T13:43:28.681Z,22.36
2023-05-20T13:45:58.082Z,21.70
2023-05-20T13:48:26.173Z,22.54
2023-05-20T13:50:54.373Z,22.54
2023-05-20T13:53:22.963Z,22.64
2023-05-20T13:55:51.544Z,22.89
2023-05-20T13:58:19.542Z,23.26
2023-05-20T14:00:47.541Z,23.22
2023-05-20T14:03:17.107Z,23.09
2023-05-20T14:05:45.250Z,23.11
2023-05-20T14:08:13.852Z,22.84
2023-05-20T14:10:42.050Z,23.16
2023-05-20T14:13:10.778Z,23.31
2023-05-20T14:15:39.540Z,23.00
2023-05-20T14:18:07.878Z,22.97
2023-05-20T14:20:37.674Z,22.88
2023-05-20T14:23:05.953Z,22.81
2023-05-20T14:25:34.085Z,22.72
2023-05-20T14:28:02.297Z,22.74
2023-05-20T14:30:30.721Z,22.80
2023-05-20T14:32:58.993Z,22.70
2023-05-20T14:35:27.608Z,22.81
2023-05-20T14:37:57.456Z,22.84
2023-05-20T14:40:25.783Z,22.63
2023-05-20T14:42:54.069Z,22.48
2023-05-20T14:45:22.466Z,22.54
2023-05-20T14:47:50.886Z,22.62
2023-05-20T14:50:19.299Z,22.35
2023-05-20T14:52:47.679Z,22.26
2023-05-20T14:55:17.564Z,22.33
2023-05-20T14:57:46.013Z,22.21
2023-05-20T15:00:14.982Z,22.39
2023-05-20T15:02:43.188Z,21.96
2023-05-20T15:05:12.386Z,21.73
2023-05-20T15:07:40.494Z,21.16
2023-05-20T15:10:09.425Z,21.79
2023-05-20T15:12:38.811Z,21.90
2023-05-20T15:15:12.386Z,21.60
2023-05-20T15:17:40.396Z,21.50
2023-05-20T15:20:09.719Z,21.47
2023-05-20T15:22:37.775Z,21.34
2023-05-20T15:25:06.550Z,21.29
2023-05-20T15:27:34.513Z,21.17
2023-05-20T15:30:04.080Z,21.44
2023-05-20T15:32:32.670Z,21.50
2023-05-20T15:35:02.663Z,21.46
2023-05-20T15:37:30.873Z,21.27
2023-05-20T15:39:58.868Z,20.80
2023-05-20T15:42:27.191Z,20.73
2023-05-20T15:44:55.163Z,20.79
2023-05-20T15:47:24.460Z,20.74
2023-05-20T15:49:52.758Z,19.88
2023-05-20T15:52:20.666Z,20.46
2023-05-20T15:54:48.586Z,20.21
2023-05-20T15:57:16.708Z,20.31
2023-05-20T15:59:44.672Z,20.41
2023-05-20T16:02:12.656Z,20.43
2023-05-20T16:04:42.068Z,20.59
2023-05-20T16:07:09.967Z,20.62
2023-05-20T16:09:37.871Z,20.51
2023-05-20T16:12:07.128Z,20.31
2023-05-20T16:14:35.012Z,20.34
2023-05-20T16:17:02.974Z,20.29
2023-05-20T16:19:31.161Z,20.12
2023-05-20T16:22:00.538Z,20.39
2023-05-20T16:24:28.573Z,20.59
2023-05-20T16:26:56.727Z,20.68
2023-05-20T16:29:24.668Z,20.74
2023-05-20T16:31:52.713Z,20.44
2023-05-20T16:34:20.866Z,20.53
2023-05-20T16:36:48.743Z,20.57
2023-05-20T16:39:18.019Z,20.96
2023-05-20T16:41:46.144Z,20.96
2023-05-20T16:44:14.007Z,21.16
2023-05-20T16:46:41.894Z,20.92
2023-05-20T16:49:09.818Z,21.02
2023-05-20T16:51:37.868Z,21.16
2023-05-20T16:54:06.010Z,21.32
2023-05-20T16:56:37.243Z,21.31
2023-05-20T16:59:05.218Z,21.28
2023-05-20T17:01:33.225Z,21.30
2023-05-20T17:04:01.485Z,21.11
2023-05-20T17:06:34.412Z,21.02
2023-05-20T17:09:04.619Z,20.87
2023-05-20T17:11:32.622Z,20.58
2023-05-20T17:14:01.938Z,20.37
2023-05-20T17:16:30.144Z,20.33
2023-05-20T17:18:58.795Z,20.15
2023-05-20T17:21:26.775Z,20.13
2023-05-20T17:23:54.688Z,20.22
2023-05-20T17:26:22.988Z,20.16
2023-05-20T17:28:50.914Z,20.04
2023-05-20T17:31:20.510Z,19.87
2023-05-20T17:33:48.809Z,19.75
2023-05-20T17:36:16.829Z,19.56
2023-05-20T17:38:44.742Z,19.63
2023-05-20T17:41:12.684Z,19.66
2023-05-20T17:43:40.669Z,19.55
2023-05-20T17:46:08.631Z,19.46
2023-05-20T17:48:38.016Z,19.59
2023-05-20T17:51:06.549Z,19.61
2023-05-20T17:53:34.691Z,19.43
2023-05-20T17:56:02.786Z,19.62
2023-05-20T17:58:31.589Z,19.64
2023-05-20T18:00:59.521Z,19.79
2023-05-20T18:03:27.963Z,19.68
2023-05-20T18:05:57.472Z,19.62
2023-05-20T18:08:25.788Z,19.80
2023-05-20T18:10:54.112Z,19.34
2023-05-20T18:13:22.075Z,19.46
2023-05-20T18:15:50.160Z,19.64
2023-05-20T18:18:18.081Z,19.66
2023-05-20T18:20:45.999Z,19.65
2023-05-20T18:23:19.200Z,19.59
2023-05-20T18:25:47.133Z,19.39
2023-05-20T18:28:15.216Z,19.38
2023-05-20T18:30:43.179Z,19.46
2023-05-20T18:33:11.734Z,19.50
2023-05-20T18:35:40.108Z,19.52
2023-05-20T18:38:08.634Z,19.49
2023-05-20T18:40:38.067Z,19.24
2023-05-20T18:43:06.132Z,19.39
2023-05-20T18:45:34.126Z,19.25
2023-05-20T18:48:02.253Z,19.23
2023-05-20T18:50:30.237Z,19.43
2023-05-20T18:52:58.312Z,19.19
2023-05-20T18:55:26.377Z,19.12
2023-05-20T18:57:55.774Z,19.01
2023-05-20T19:00:23.904Z,18.82
2023-05-20T19:02:51.869Z,18.76
2023-05-20T19:05:20.491Z,18.59
2023-05-20T19:07:48.578Z,18.45
2023-05-20T19:10:16.677Z,18.47
2023-05-20T19:12:44.665Z,18.59
2023-05-20T19:15:14.727Z,18.50
2023-05-20T19:17:42.748Z,18.54
2023-05-20T19:20:11.593Z,18.08
2023-05-20T19:22:39.566Z,18.33
2023-05-20T19:25:07.898Z,18.17
2023-05-20T19:27:35.855Z,17.99
2023-05-20T19:30:03.942Z,17.73
2023-05-20T19:32:33.306Z,17.36
2023-05-20T19:35:01.442Z,17.67
2023-05-20T19:37:29.476Z,17.73
2023-05-20T19:39:57.382Z,17.63
2023-05-20T19:42:25.400Z,17.72
2023-05-20T19:44:54.392Z,17.63
2023-05-20T19:47:22.863Z,17.41
2023-05-20T19:49:52.324Z,17.31
2023-05-20T19:52:20.625Z,16.68
2023-05-20T19:54:48.697Z,16.64
2023-05-20T19:57:16.688Z,16.75
2023-05-20T19:59:44.661Z,16.72
2023-05-20T20:02:12.524Z,16.84
2023-05-20T20:04:40.445Z,16.79
2023-05-20T20:07:09.820Z,16.64
2023-05-20T20:09:37.746Z,16.51
2023-05-20T20:12:07.127Z,16.48
2023-05-20T20:14:35.123Z,16.70
2023-05-20T20:17:03.332Z,16.56
2023-05-20T20:19:31.308Z,16.44
2023-05-20T20:21:59.388Z,16.51
2023-05-20T20:24:28.656Z,16.42
2023-05-20T20:26:57.060Z,16.35
2023-05-20T20:29:25.200Z,15.90
2023-05-20T20:31:53.407Z,16.10
2023-05-20T20:34:22.072Z,16.07
2023-05-20T20:36:51.361Z,16.24
2023-05-20T20:39:20.165Z,16.41
2023-05-20T20:41:50.934Z,16.39
2023-05-20T20:44:22.612Z,16.52
2023-05-20T20:46:51.974Z,16.54
2023-05-20T20:49:20.357Z,16.71
2023-05-20T20:51:49.561Z,16.76
2023-05-20T20:54:17.668Z,16.73
2023-05-20T20:56:47.301Z,16.70
2023-05-20T20:59:16.810Z,16.45
2023-05-20T21:01:45.337Z,16.77
2023-05-20T21:04:14.070Z,16.70
2023-05-20T21:06:46.006Z,16.40
2023-05-20T21:09:14.555Z,16.40
2023-05-20T21:11:43.286Z,16.03
2023-05-20T21:14:11.420Z,16.10
2023-05-20T21:16:42.327Z,16.04
2023-05-20T21:19:10.592Z,16.19
2023-05-20T21:21:38.512Z,15.91
2023-05-20T21:24:06.913Z,15.95
2023-05-20T21:26:34.866Z,15.87
2023-05-20T21:29:02.796Z,15.72
2023-05-20T21:31:31.126Z,15.41
2023-05-20T21:34:00.910Z,15.15
2023-05-20T21:36:28.861Z,15.44
2023-05-20T21:38:56.845Z,15.26
2023-05-20T21:41:24.885Z,15.01
2023-05-20T21:43:52.847Z,15.36
2023-05-20T21:46:20.922Z,15.37
2023-05-20T21:48:48.928Z,15.35
2023-05-20T21:51:18.344Z,15.29
2023-05-20T21:53:46.295Z,15.21
2023-05-20T21:56:14.466Z,15.06
2023-05-20T21:58:42.426Z,14.97
2023-05-20T22:01:10.890Z,14.93
2023-05-20T22:03:39.982Z,13.86
2023-05-20T22:06:08.420Z,13.89
2023-05-20T22:08:38.797Z,14.20
2023-05-20T22:11:07.758Z,14.15
2023-05-20T22:13:41.451Z,14.67
2023-05-20T22:16:10.307Z,14.55
2023-05-20T22:18:38.712Z,14.57
2023-05-20T22:21:07.016Z,14.48
2023-05-20T22:23:34.917Z,14.47
2023-05-20T22:26:04.990Z,14.16
2023-05-20T22:28:33.042Z,14.34
2023-05-20T22:31:00.989Z,14.26
2023-05-20T22:33:29.349Z,14.24
2023-05-20T22:35:58.406Z,14.13
2023-05-20T22:38:29.208Z,14.18
2023-05-20T22:40:57.156Z,14.21
2023-05-20T22:43:26.510Z,14.33
2023-05-20T22:45:54.511Z,14.27
2023-05-20T22:48:23.587Z,14.25
2023-05-20T22:50:54.220Z,14.24
2023-05-20T22:53:22.260Z,14.35
2023-05-20T22:55:50.277Z,14.07
2023-05-20T22:58:18.279Z,14.22
2023-05-20T23:00:47.603Z,14.04
2023-05-20T23:03:16.024Z,14.54
2023-05-20T23:05:43.999Z,14.57
2023-05-20T23:08:11.863Z,14.63
2023-05-20T23:10:39.779Z,14.54
2023-05-20T23:13:07.736Z,14.66
2023-05-20T23:15:35.912Z,14.73
2023-05-20T23:18:05.534Z,14.59
2023-05-20T23:20:33.546Z,14.69
2023-05-20T23:23:08.227Z,14.69
2023-05-20T23:25:39.307Z,14.32
2023-05-20T23:28:07.464Z,14.47
2023-05-20T23:30:35.881Z,14.54
2023-05-20T23:33:05.580Z,14.50
2023-05-20T23:35:34.208Z,14.11
2023-05-20T23:38:02.320Z,14.38
2023-05-20T23:40:30.230Z,14.41
2023-05-20T23:42:58.143Z,14.36
2023-05-20T23:45:26.070Z,13.91
2023-05-20T23:47:55.675Z,14.33
2023-05-20T23:50:25.077Z,14.38
2023-05-20T23:52:52.997Z,14.47
2023-05-20T23:55:21.404Z,13.49
2023-05-20T23:57:49.859Z,14.56
